sensor_id;sensor_type;location;lat;lon;timestamp;temperature;humidity
26907;DHT22;14472;56.880;16.658;2023-11-19T00:00:29;-0.80;99.90
26907;DHT22;14472;56.880;16.658;2023-11-19T00:02:55;-0.80;99.90
26907;DHT22;14472;56.880;16.658;2023-11-19T00:05:20;-0.90;99.90
26907;DHT22;14472;56.880;16.658;2023-11-19T00:07:46;-1.00;99.90
26907;DHT22;14472;56.880;16.658;2023-11-19T00:10:16;-1.10;99.90
26907;DHT22;14472;56.880;16.658;2023-11-19T00:12:45;-1.20;99.90
26907;DHT22;14472;56.880;16.658;2023-11-19T00:15:15;-1.20;99.90
26907;DHT22;14472;56.880;16.658;2023-11-19T00:17:42;-1.10;99.90
26907;DHT22;14472;56.880;16.658;2023-11-19T00:20:14;-1.10;99.90
26907;DHT22;14472;56.880;16.658;2023-11-19T00:22:40;-1.10;99.90
26907;DHT22;14472;56.880;16.658;2023-11-19T00:25:08;-1.20;99.90
26907;DHT22;14472;56.880;16.658;2023-11-19T00:27:34;-1.20;99.90
26907;DHT22;14472;56.880;16.658;2023-11-19T00:29:59;-1.30;99.90
26907;DHT22;14472;56.880;16.658;2023-11-19T00:32:25;-1.20;99.90
26907;DHT22;14472;56.880;16.658;2023-11-19T00:34:51;-1.20;99.90
26907;DHT22;14472;56.880;16.658;2023-11-19T00:37:17;-1.20;99.90
26907;DHT22;14472;56.880;16.658;2023-11-19T00:39:43;-1.20;99.90
26907;DHT22;14472;56.880;16.658;2023-11-19T00:42:09;-1.20;99.90
26907;DHT22;14472;56.880;16.658;2023-11-19T00:44:36;-1.20;99.90
26907;DHT22;14472;56.880;16.658;2023-11-19T00:47:02;-1.10;99.90
26907;DHT22;14472;56.880;16.658;2023-11-19T00:49:28;-1.10;99.90
26907;DHT22;14472;56.880;16.658;2023-11-19T00:51:53;-1.00;99.90
26907;DHT22;14472;56.880;16.658;2023-11-19T00:54:19;-1.00;99.90
26907;DHT22;14472;56.880;16.658;2023-11-19T00:56:45;-1.00;99.90
26907;DHT22;14472;56.880;16.658;2023-11-19T00:59:11;-0.90;99.90
26907;DHT22;14472;56.880;16.658;2023-11-19T01:01:37;-0.90;99.90
26907;DHT22;14472;56.880;16.658;2023-11-19T01:04:03;-0.90;99.90
26907;DHT22;14472;56.880;16.658;2023-11-19T01:06:30;-0.80;99.90
26907;DHT22;14472;56.880;16.658;2023-11-19T01:08:56;-0.80;99.90
26907;DHT22;14472;56.880;16.658;2023-11-19T01:11:23;-0.80;99.90
26907;DHT22;14472;56.880;16.658;2023-11-19T01:13:49;-0.80;99.90
26907;DHT22;14472;56.880;16.658;2023-11-19T01:16:15;-0.80;99.90
26907;DHT22;14472;56.880;16.658;2023-11-19T01:18:41;-0.70;99.90
26907;DHT22;14472;56.880;16.658;2023-11-19T01:21:07;-0.70;99.90
26907;DHT22;14472;56.880;16.658;2023-11-19T01:23:34;-0.60;99.90
26907;DHT22;14472;56.880;16.658;2023-11-19T01:26:00;-0.60;99.90
26907;DHT22;14472;56.880;16.658;2023-11-19T01:28:26;-0.50;99.90
26907;DHT22;14472;56.880;16.658;2023-11-19T01:30:52;-0.40;99.90
26907;DHT22;14472;56.880;16.658;2023-11-19T01:33:18;-0.20;99.90
26907;DHT22;14472;56.880;16.658;2023-11-19T01:35:44;-0.10;99.90
26907;DHT22;14472;56.880;16.658;2023-11-19T01:38:09;-0.20;99.90
26907;DHT22;14472;56.880;16.658;2023-11-19T01:40:36;-0.10;99.90
26907;DHT22;14472;56.880;16.658;2023-11-19T01:43:02;0.00;99.90
26907;DHT22;14472;56.880;16.658;2023-11-19T01:45:30;0.10;99.90
26907;DHT22;14472;56.880;16.658;2023-11-19T01:48:00;0.20;99.90
26907;DHT22;14472;56.880;16.658;2023-11-19T01:50:28;0.20;99.90
26907;DHT22;14472;56.880;16.658;2023-11-19T01:52:54;0.20;99.90
26907;DHT22;14472;56.880;16.658;2023-11-19T01:55:24;0.20;99.90
26907;DHT22;14472;56.880;16.658;2023-11-19T01:57:49;0.30;99.90
26907;DHT22;14472;56.880;16.658;2023-11-19T02:00:16;0.30;99.90
26907;DHT22;14472;56.880;16.658;2023-11-19T02:02:46;0.40;99.90
26907;DHT22;14472;56.880;16.658;2023-11-19T02:05:12;0.50;99.90
26907;DHT22;14472;56.880;16.658;2023-11-19T02:07:41;0.50;99.90
26907;DHT22;14472;56.880;16.658;2023-11-19T02:10:07;0.50;99.90
26907;DHT22;14472;56.880;16.658;2023-11-19T02:12:43;0.60;99.90
26907;DHT22;14472;56.880;16.658;2023-11-19T02:15:09;0.60;99.90
26907;DHT22;14472;56.880;16.658;2023-11-19T02:17:35;0.60;99.90
26907;DHT22;14472;56.880;16.658;2023-11-19T02:20:04;0.70;99.90
26907;DHT22;14472;56.880;16.658;2023-11-19T02:22:40;0.70;99.90
26907;DHT22;14472;56.880;16.658;2023-11-19T02:25:18;0.70;99.90
26907;DHT22;14472;56.880;16.658;2023-11-19T02:30:22;0.90;99.90
26907;DHT22;14472;56.880;16.658;2023-11-19T02:32:55;0.90;99.90
26907;DHT22;14472;56.880;16.658;2023-11-19T02:35:26;0.90;99.90
26907;DHT22;14472;56.880;16.658;2023-11-19T02:37:52;1.00;99.90
26907;DHT22;14472;56.880;16.658;2023-11-19T02:40:18;1.00;99.90
26907;DHT22;14472;56.880;16.658;2023-11-19T02:42:44;1.00;99.90
26907;DHT22;14472;56.880;16.658;2023-11-19T02:45:10;1.00;99.90
26907;DHT22;14472;56.880;16.658;2023-11-19T02:47:40;1.10;99.90
26907;DHT22;14472;56.880;16.658;2023-11-19T02:50:08;1.10;99.90
26907;DHT22;14472;56.880;16.658;2023-11-19T02:52:43;1.10;99.90
26907;DHT22;14472;56.880;16.658;2023-11-19T02:55:10;1.10;99.90
26907;DHT22;14472;56.880;16.658;2023-11-19T02:57:38;1.10;99.90
26907;DHT22;14472;56.880;16.658;2023-11-19T03:00:13;1.10;99.90
26907;DHT22;14472;56.880;16.658;2023-11-19T03:02:40;1.10;99.90
26907;DHT22;14472;56.880;16.658;2023-11-19T03:05:11;1.10;99.90
26907;DHT22;14472;56.880;16.658;2023-11-19T03:07:37;1.10;99.90
26907;DHT22;14472;56.880;16.658;2023-11-19T03:10:03;1.20;99.90
26907;DHT22;14472;56.880;16.658;2023-11-19T03:12:31;1.20;99.90
26907;DHT22;14472;56.880;16.658;2023-11-19T03:14:57;1.30;99.90
26907;DHT22;14472;56.880;16.658;2023-11-19T03:17:22;1.50;99.90
26907;DHT22;14472;56.880;16.658;2023-11-19T03:19:49;1.70;99.90
26907;DHT22;14472;56.880;16.658;2023-11-19T03:22:15;2.00;99.90
26907;DHT22;14472;56.880;16.658;2023-11-19T03:24:41;2.20;99.90
26907;DHT22;14472;56.880;16.658;2023-11-19T03:27:06;2.10;99.90
26907;DHT22;14472;56.880;16.658;2023-11-19T03:29:32;1.90;99.90
26907;DHT22;14472;56.880;16.658;2023-11-19T03:31:58;1.70;99.90
26907;DHT22;14472;56.880;16.658;2023-11-19T03:34:23;1.60;99.90
26907;DHT22;14472;56.880;16.658;2023-11-19T03:36:49;1.60;99.90
26907;DHT22;14472;56.880;16.658;2023-11-19T03:39:15;1.90;99.90
26907;DHT22;14472;56.880;16.658;2023-11-19T03:41:40;1.80;99.90
26907;DHT22;14472;56.880;16.658;2023-11-19T03:44:06;1.70;99.90
26907;DHT22;14472;56.880;16.658;2023-11-19T03:46:31;1.60;99.90
26907;DHT22;14472;56.880;16.658;2023-11-19T03:48:57;1.50;99.90
26907;DHT22;14472;56.880;16.658;2023-11-19T03:51:23;1.50;99.90
26907;DHT22;14472;56.880;16.658;2023-11-19T03:53:48;1.50;99.90
26907;DHT22;14472;56.880;16.658;2023-11-19T03:56:14;1.50;99.90
26907;DHT22;14472;56.880;16.658;2023-11-19T03:58:40;1.40;99.90
26907;DHT22;14472;56.880;16.658;2023-11-19T04:01:06;1.40;99.90
26907;DHT22;14472;56.880;16.658;2023-11-19T04:03:36;1.40;99.90
26907;DHT22;14472;56.880;16.658;2023-11-19T04:06:02;1.40;99.90
26907;DHT22;14472;56.880;16.658;2023-11-19T04:08:28;1.40;99.90
26907;DHT22;14472;56.880;16.658;2023-11-19T04:10:54;1.30;99.90
26907;DHT22;14472;56.880;16.658;2023-11-19T04:13:20;1.30;99.90
26907;DHT22;14472;56.880;16.658;2023-11-19T04:15:46;1.30;99.90
26907;DHT22;14472;56.880;16.658;2023-11-19T04:18:11;1.30;99.90
26907;DHT22;14472;56.880;16.658;2023-11-19T04:20:37;1.30;99.90
26907;DHT22;14472;56.880;16.658;2023-11-19T04:23:03;1.30;99.90
26907;DHT22;14472;56.880;16.658;2023-11-19T04:25:28;1.20;99.90
26907;DHT22;14472;56.880;16.658;2023-11-19T04:27:54;1.20;99.90
26907;DHT22;14472;56.880;16.658;2023-11-19T04:30:20;1.20;99.90
26907;DHT22;14472;56.880;16.658;2023-11-19T04:32:46;1.20;99.90
26907;DHT22;14472;56.880;16.658;2023-11-19T04:35:11;1.10;99.90
26907;DHT22;14472;56.880;16.658;2023-11-19T04:37:37;1.20;99.90
26907;DHT22;14472;56.880;16.658;2023-11-19T04:40:03;1.20;99.90
26907;DHT22;14472;56.880;16.658;2023-11-19T04:42:29;1.10;99.90
26907;DHT22;14472;56.880;16.658;2023-11-19T04:44:55;1.10;99.90
26907;DHT22;14472;56.880;16.658;2023-11-19T04:47:21;1.10;99.90
26907;DHT22;14472;56.880;16.658;2023-11-19T04:49:47;1.00;99.90
26907;DHT22;14472;56.880;16.658;2023-11-19T04:52:12;1.00;99.90
26907;DHT22;14472;56.880;16.658;2023-11-19T04:54:44;1.00;99.90
26907;DHT22;14472;56.880;16.658;2023-11-19T04:57:10;0.90;99.90
26907;DHT22;14472;56.880;16.658;2023-11-19T04:59:38;0.90;99.90
26907;DHT22;14472;56.880;16.658;2023-11-19T05:02:04;0.90;99.90
26907;DHT22;14472;56.880;16.658;2023-11-19T05:04:31;0.80;99.90
26907;DHT22;14472;56.880;16.658;2023-11-19T05:06:57;0.80;99.90
26907;DHT22;14472;56.880;16.658;2023-11-19T05:09:23;0.80;99.90
26907;DHT22;14472;56.880;16.658;2023-11-19T05:11:48;0.80;99.90
26907;DHT22;14472;56.880;16.658;2023-11-19T05:14:14;0.90;99.90
26907;DHT22;14472;56.880;16.658;2023-11-19T05:16:40;0.90;99.90
26907;DHT22;14472;56.880;16.658;2023-11-19T05:19:06;0.90;99.90
26907;DHT22;14472;56.880;16.658;2023-11-19T05:21:32;0.90;99.90
26907;DHT22;14472;56.880;16.658;2023-11-19T05:23:58;0.90;99.90
26907;DHT22;14472;56.880;16.658;2023-11-19T05:26:24;0.90;99.90
26907;DHT22;14472;56.880;16.658;2023-11-19T05:28:50;0.90;99.90
26907;DHT22;14472;56.880;16.658;2023-11-19T05:31:17;0.90;99.90
26907;DHT22;14472;56.880;16.658;2023-11-19T05:33:43;0.90;99.90
26907;DHT22;14472;56.880;16.658;2023-11-19T05:36:11;0.90;99.90
26907;DHT22;14472;56.880;16.658;2023-11-19T05:38:38;0.90;99.90
26907;DHT22;14472;56.880;16.658;2023-11-19T05:41:04;0.90;99.90
26907;DHT22;14472;56.880;16.658;2023-11-19T05:43:30;0.90;99.90
26907;DHT22;14472;56.880;16.658;2023-11-19T05:45:56;1.00;99.90
26907;DHT22;14472;56.880;16.658;2023-11-19T05:48:22;1.00;99.90
26907;DHT22;14472;56.880;16.658;2023-11-19T05:50:48;1.10;99.90
26907;DHT22;14472;56.880;16.658;2023-11-19T05:53:16;1.30;99.90
26907;DHT22;14472;56.880;16.658;2023-11-19T05:55:41;1.40;99.90
26907;DHT22;14472;56.880;16.658;2023-11-19T05:58:30;1.50;99.90
26907;DHT22;14472;56.880;16.658;2023-11-19T06:00:56;1.60;99.90
26907;DHT22;14472;56.880;16.658;2023-11-19T06:03:22;1.60;99.90
26907;DHT22;14472;56.880;16.658;2023-11-19T06:05:49;1.70;99.90
26907;DHT22;14472;56.880;16.658;2023-11-19T06:08:15;1.80;99.90
26907;DHT22;14472;56.880;16.658;2023-11-19T06:10:42;1.80;99.90
26907;DHT22;14472;56.880;16.658;2023-11-19T06:13:09;2.00;99.90
26907;DHT22;14472;56.880;16.658;2023-11-19T06:15:35;2.10;99.90
26907;DHT22;14472;56.880;16.658;2023-11-19T06:18:02;2.20;99.90
26907;DHT22;14472;56.880;16.658;2023-11-19T06:20:29;2.30;99.90
26907;DHT22;14472;56.880;16.658;2023-11-19T06:22:56;2.40;99.90
26907;DHT22;14472;56.880;16.658;2023-11-19T06:25:22;2.40;99.90
26907;DHT22;14472;56.880;16.658;2023-11-19T06:27:52;2.40;99.90
26907;DHT22;14472;56.880;16.658;2023-11-19T06:30:19;2.40;99.90
26907;DHT22;14472;56.880;16.658;2023-11-19T06:32:45;2.40;99.90
26907;DHT22;14472;56.880;16.658;2023-11-19T06:35:12;2.50;99.90
26907;DHT22;14472;56.880;16.658;2023-11-19T06:37:39;2.40;99.90
26907;DHT22;14472;56.880;16.658;2023-11-19T06:40:06;2.50;99.90
26907;DHT22;14472;56.880;16.658;2023-11-19T06:42:32;2.50;99.90
26907;DHT22;14472;56.880;16.658;2023-11-19T06:44:58;2.50;99.90
26907;DHT22;14472;56.880;16.658;2023-11-19T06:47:27;2.50;99.90
26907;DHT22;14472;56.880;16.658;2023-11-19T06:49:54;2.60;99.90
26907;DHT22;14472;56.880;16.658;2023-11-19T06:52:20;2.70;99.90
26907;DHT22;14472;56.880;16.658;2023-11-19T06:54:45;2.90;99.90
26907;DHT22;14472;56.880;16.658;2023-11-19T06:57:12;3.10;99.90
26907;DHT22;14472;56.880;16.658;2023-11-19T06:59:38;3.30;99.90
26907;DHT22;14472;56.880;16.658;2023-11-19T07:02:04;3.40;99.90
26907;DHT22;14472;56.880;16.658;2023-11-19T07:04:31;3.00;99.90
26907;DHT22;14472;56.880;16.658;2023-11-19T07:06:57;2.80;99.90
26907;DHT22;14472;56.880;16.658;2023-11-19T07:09:22;2.60;99.90
26907;DHT22;14472;56.880;16.658;2023-11-19T07:11:48;2.50;99.90
26907;DHT22;14472;56.880;16.658;2023-11-19T07:14:16;2.60;99.90
26907;DHT22;14472;56.880;16.658;2023-11-19T07:16:42;2.70;99.90
26907;DHT22;14472;56.880;16.658;2023-11-19T07:19:08;2.60;99.90
26907;DHT22;14472;56.880;16.658;2023-11-19T07:21:34;2.60;99.90
26907;DHT22;14472;56.880;16.658;2023-11-19T07:24:01;2.60;99.90
26907;DHT22;14472;56.880;16.658;2023-11-19T07:26:27;2.60;99.90
26907;DHT22;14472;56.880;16.658;2023-11-19T07:28:53;2.60;99.90
26907;DHT22;14472;56.880;16.658;2023-11-19T07:31:19;2.60;99.90
26907;DHT22;14472;56.880;16.658;2023-11-19T07:33:45;2.70;99.90
26907;DHT22;14472;56.880;16.658;2023-11-19T07:36:12;2.70;99.90
26907;DHT22;14472;56.880;16.658;2023-11-19T07:38:38;2.70;99.90
26907;DHT22;14472;56.880;16.658;2023-11-19T07:41:05;2.70;99.90
26907;DHT22;14472;56.880;16.658;2023-11-19T07:43:31;2.80;99.90
26907;DHT22;14472;56.880;16.658;2023-11-19T07:45:57;2.90;99.90
26907;DHT22;14472;56.880;16.658;2023-11-19T07:48:25;2.90;99.90
26907;DHT22;14472;56.880;16.658;2023-11-19T07:50:52;2.90;99.90
26907;DHT22;14472;56.880;16.658;2023-11-19T07:53:18;3.00;99.90
26907;DHT22;14472;56.880;16.658;2023-11-19T07:55:44;3.00;99.90
26907;DHT22;14472;56.880;16.658;2023-11-19T07:58:10;3.00;99.90
26907;DHT22;14472;56.880;16.658;2023-11-19T08:00:36;3.10;99.90
26907;DHT22;14472;56.880;16.658;2023-11-19T08:03:03;3.10;99.90
26907;DHT22;14472;56.880;16.658;2023-11-19T08:05:28;3.20;99.90
26907;DHT22;14472;56.880;16.658;2023-11-19T08:07:54;3.20;99.90
26907;DHT22;14472;56.880;16.658;2023-11-19T08:10:20;3.20;99.90
26907;DHT22;14472;56.880;16.658;2023-11-19T08:12:46;3.30;99.90
26907;DHT22;14472;56.880;16.658;2023-11-19T08:15:11;3.30;99.90
26907;DHT22;14472;56.880;16.658;2023-11-19T08:17:37;3.30;99.90
26907;DHT22;14472;56.880;16.658;2023-11-19T08:20:04;3.30;99.90
26907;DHT22;14472;56.880;16.658;2023-11-19T08:22:30;3.30;99.90
26907;DHT22;14472;56.880;16.658;2023-11-19T08:24:56;3.40;99.90
26907;DHT22;14472;56.880;16.658;2023-11-19T08:27:22;3.50;99.90
26907;DHT22;14472;56.880;16.658;2023-11-19T08:29:55;3.50;99.90
26907;DHT22;14472;56.880;16.658;2023-11-19T08:32:25;3.50;99.90
26907;DHT22;14472;56.880;16.658;2023-11-19T08:34:51;3.60;99.90
26907;DHT22;14472;56.880;16.658;2023-11-19T08:37:16;3.70;99.90
26907;DHT22;14472;56.880;16.658;2023-11-19T08:39:49;3.70;99.90
26907;DHT22;14472;56.880;16.658;2023-11-19T08:42:15;3.70;99.90
26907;DHT22;14472;56.880;16.658;2023-11-19T08:44:41;3.60;99.90
26907;DHT22;14472;56.880;16.658;2023-11-19T08:47:09;3.70;99.90
26907;DHT22;14472;56.880;16.658;2023-11-19T08:49:36;3.70;99.90
26907;DHT22;14472;56.880;16.658;2023-11-19T08:52:02;3.70;99.90
26907;DHT22;14472;56.880;16.658;2023-11-19T08:54:28;3.70;99.90
26907;DHT22;14472;56.880;16.658;2023-11-19T08:56:53;3.70;99.90
26907;DHT22;14472;56.880;16.658;2023-11-19T08:59:19;3.70;99.90
26907;DHT22;14472;56.880;16.658;2023-11-19T09:01:45;3.70;99.90
26907;DHT22;14472;56.880;16.658;2023-11-19T09:04:11;3.80;99.90
26907;DHT22;14472;56.880;16.658;2023-11-19T09:06:36;3.70;99.90
26907;DHT22;14472;56.880;16.658;2023-11-19T09:09:02;3.70;99.90
26907;DHT22;14472;56.880;16.658;2023-11-19T09:11:31;3.90;99.90
26907;DHT22;14472;56.880;16.658;2023-11-19T09:13:57;3.80;99.90
26907;DHT22;14472;56.880;16.658;2023-11-19T09:16:23;3.90;99.90
26907;DHT22;14472;56.880;16.658;2023-11-19T09:18:49;3.90;99.90
26907;DHT22;14472;56.880;16.658;2023-11-19T09:21:15;4.00;99.90
26907;DHT22;14472;56.880;16.658;2023-11-19T09:23:41;3.90;99.90
26907;DHT22;14472;56.880;16.658;2023-11-19T09:26:08;3.90;99.90
26907;DHT22;14472;56.880;16.658;2023-11-19T09:28:35;4.00;99.90
26907;DHT22;14472;56.880;16.658;2023-11-19T09:31:01;4.00;99.90
26907;DHT22;14472;56.880;16.658;2023-11-19T09:33:30;4.10;99.90
26907;DHT22;14472;56.880;16.658;2023-11-19T09:35:55;4.20;99.90
26907;DHT22;14472;56.880;16.658;2023-11-19T09:38:21;4.20;99.90
26907;DHT22;14472;56.880;16.658;2023-11-19T09:40:47;4.20;99.90
26907;DHT22;14472;56.880;16.658;2023-11-19T09:43:15;4.20;99.90
26907;DHT22;14472;56.880;16.658;2023-11-19T09:45:49;4.20;99.90
26907;DHT22;14472;56.880;16.658;2023-11-19T09:48:17;4.20;99.90
26907;DHT22;14472;56.880;16.658;2023-11-19T09:50:48;4.30;93.80
26907;DHT22;14472;56.880;16.658;2023-11-19T09:53:14;4.20;96.90
26907;DHT22;14472;56.880;16.658;2023-11-19T09:55:41;4.30;85.00
26907;DHT22;14472;56.880;16.658;2023-11-19T09:58:07;4.40;82.10
26907;DHT22;14472;56.880;16.658;2023-11-19T10:00:33;4.40;74.80
26907;DHT22;14472;56.880;16.658;2023-11-19T10:03:00;4.40;55.50
26907;DHT22;14472;56.880;16.658;2023-11-19T10:05:26;4.50;47.60
26907;DHT22;14472;56.880;16.658;2023-11-19T10:07:52;4.60;35.30
26907;DHT22;14472;56.880;16.658;2023-11-19T10:10:18;4.50;35.20
26907;DHT22;14472;56.880;16.658;2023-11-19T10:12:47;4.50;31.30
26907;DHT22;14472;56.880;16.658;2023-11-19T10:15:23;4.60;22.00
26907;DHT22;14472;56.880;16.658;2023-11-19T10:17:50;4.60;26.40
26907;DHT22;14472;56.880;16.658;2023-11-19T10:20:17;4.60;27.50
26907;DHT22;14472;56.880;16.658;2023-11-19T10:22:43;4.60;23.00
26907;DHT22;14472;56.880;16.658;2023-11-19T10:25:25;4.60;20.40
26907;DHT22;14472;56.880;16.658;2023-11-19T10:27:52;4.80;7.40
26907;DHT22;14472;56.880;16.658;2023-11-19T10:30:27;4.80;3.00
26907;DHT22;14472;56.880;16.658;2023-11-19T10:33:14;4.80;1.00
26907;DHT22;14472;56.880;16.658;2023-11-19T10:35:53;4.80;1.70
26907;DHT22;14472;56.880;16.658;2023-11-19T10:38:19;4.80;1.00
26907;DHT22;14472;56.880;16.658;2023-11-19T10:40:46;4.80;1.00
26907;DHT22;14472;56.880;16.658;2023-11-19T10:43:12;4.70;1.00
26907;DHT22;14472;56.880;16.658;2023-11-19T10:45:38;4.90;1.00
26907;DHT22;14472;56.880;16.658;2023-11-19T10:48:05;4.90;1.00
26907;DHT22;14472;56.880;16.658;2023-11-19T10:50:36;4.90;1.00
26907;DHT22;14472;56.880;16.658;2023-11-19T10:53:03;4.80;1.00
26907;DHT22;14472;56.880;16.658;2023-11-19T10:55:34;4.80;1.00
26907;DHT22;14472;56.880;16.658;2023-11-19T10:58:10;4.70;3.10
26907;DHT22;14472;56.880;16.658;2023-11-19T11:00:44;4.80;1.00
26907;DHT22;14472;56.880;16.658;2023-11-19T11:03:19;4.80;1.00
26907;DHT22;14472;56.880;16.658;2023-11-19T11:05:50;4.80;1.00
26907;DHT22;14472;56.880;16.658;2023-11-19T11:08:17;4.70;2.30
26907;DHT22;14472;56.880;16.658;2023-11-19T11:10:45;4.80;1.40
26907;DHT22;14472;56.880;16.658;2023-11-19T11:13:11;4.80;1.00
26907;DHT22;14472;56.880;16.658;2023-11-19T11:15:39;4.80;1.00
26907;DHT22;14472;56.880;16.658;2023-11-19T11:18:08;4.90;1.00
26907;DHT22;14472;56.880;16.658;2023-11-19T11:20:35;4.80;1.00
26907;DHT22;14472;56.880;16.658;2023-11-19T11:25:56;4.90;1.00
26907;DHT22;14472;56.880;16.658;2023-11-19T11:31:36;4.90;1.00
26907;DHT22;14472;56.880;16.658;2023-11-19T11:39:39;4.80;1.00
26907;DHT22;14472;56.880;16.658;2023-11-19T11:50:11;4.80;1.00
26907;DHT22;14472;56.880;16.658;2023-11-19T11:55:33;4.80;1.00
26907;DHT22;14472;56.880;16.658;2023-11-19T11:58:00;4.90;1.00
26907;DHT22;14472;56.880;16.658;2023-11-19T12:00:32;4.70;1.00
26907;DHT22;14472;56.880;16.658;2023-11-19T12:03:04;4.80;1.00
26907;DHT22;14472;56.880;16.658;2023-11-19T12:05:30;4.70;1.00
26907;DHT22;14472;56.880;16.658;2023-11-19T12:08:03;4.70;1.00
26907;DHT22;14472;56.880;16.658;2023-11-19T12:10:30;4.70;1.00
26907;DHT22;14472;56.880;16.658;2023-11-19T12:13:01;4.60;1.00
26907;DHT22;14472;56.880;16.658;2023-11-19T12:15:27;4.60;1.00
26907;DHT22;14472;56.880;16.658;2023-11-19T12:17:54;4.60;1.00
26907;DHT22;14472;56.880;16.658;2023-11-19T12:20:22;4.70;1.00
26907;DHT22;14472;56.880;16.658;2023-11-19T12:22:49;4.70;1.00
26907;DHT22;14472;56.880;16.658;2023-11-19T12:25:17;4.70;1.00
26907;DHT22;14472;56.880;16.658;2023-11-19T12:27:53;4.60;1.00
26907;DHT22;14472;56.880;16.658;2023-11-19T12:30:25;4.60;1.00
26907;DHT22;14472;56.880;16.658;2023-11-19T12:32:52;4.70;1.00
26907;DHT22;14472;56.880;16.658;2023-11-19T12:35:19;4.70;1.00
26907;DHT22;14472;56.880;16.658;2023-11-19T12:37:52;4.80;1.00
26907;DHT22;14472;56.880;16.658;2023-11-19T12:40:23;4.90;1.00
26907;DHT22;14472;56.880;16.658;2023-11-19T12:42:50;4.90;1.00
26907;DHT22;14472;56.880;16.658;2023-11-19T12:45:16;4.80;1.00
26907;DHT22;14472;56.880;16.658;2023-11-19T12:47:43;4.70;1.00
26907;DHT22;14472;56.880;16.658;2023-11-19T12:50:10;4.70;1.00
26907;DHT22;14472;56.880;16.658;2023-11-19T12:52:36;4.70;1.00
26907;DHT22;14472;56.880;16.658;2023-11-19T12:55:04;4.80;1.00
26907;DHT22;14472;56.880;16.658;2023-11-19T12:57:40;4.80;1.00
26907;DHT22;14472;56.880;16.658;2023-11-19T13:00:07;4.80;1.00
26907;DHT22;14472;56.880;16.658;2023-11-19T13:02:45;4.70;1.00
26907;DHT22;14472;56.880;16.658;2023-11-19T13:05:32;4.70;1.00
26907;DHT22;14472;56.880;16.658;2023-11-19T13:08:06;4.70;1.00
26907;DHT22;14472;56.880;16.658;2023-11-19T13:13:14;4.60;1.00
26907;DHT22;14472;56.880;16.658;2023-11-19T13:15:39;4.50;1.00
26907;DHT22;14472;56.880;16.658;2023-11-19T13:18:05;4.60;1.00
26907;DHT22;14472;56.880;16.658;2023-11-19T13:20:32;4.40;1.00
26907;DHT22;14472;56.880;16.658;2023-11-19T13:22:59;4.50;1.00
26907;DHT22;14472;56.880;16.658;2023-11-19T13:25:26;4.50;1.00
26907;DHT22;14472;56.880;16.658;2023-11-19T13:27:53;4.50;1.00
26907;DHT22;14472;56.880;16.658;2023-11-19T13:30:19;4.40;1.00
26907;DHT22;14472;56.880;16.658;2023-11-19T13:32:45;4.40;1.00
26907;DHT22;14472;56.880;16.658;2023-11-19T13:35:12;4.30;1.00
26907;DHT22;14472;56.880;16.658;2023-11-19T13:37:38;4.40;1.00
26907;DHT22;14472;56.880;16.658;2023-11-19T13:40:06;4.40;1.00
26907;DHT22;14472;56.880;16.658;2023-11-19T13:42:31;4.30;1.00
26907;DHT22;14472;56.880;16.658;2023-11-19T13:44:57;4.30;1.00
26907;DHT22;14472;56.880;16.658;2023-11-19T13:47:23;4.40;1.00
26907;DHT22;14472;56.880;16.658;2023-11-19T13:49:49;4.40;1.00
26907;DHT22;14472;56.880;16.658;2023-11-19T13:52:15;4.30;1.00
26907;DHT22;14472;56.880;16.658;2023-11-19T13:54:41;4.20;1.00
26907;DHT22;14472;56.880;16.658;2023-11-19T13:57:07;4.20;1.00
26907;DHT22;14472;56.880;16.658;2023-11-19T13:59:32;4.20;1.00
26907;DHT22;14472;56.880;16.658;2023-11-19T14:01:58;4.20;1.00
26907;DHT22;14472;56.880;16.658;2023-11-19T14:04:24;4.20;1.00
26907;DHT22;14472;56.880;16.658;2023-11-19T14:06:50;4.20;1.00
26907;DHT22;14472;56.880;16.658;2023-11-19T14:09:16;4.10;1.00
26907;DHT22;14472;56.880;16.658;2023-11-19T14:11:43;4.20;1.00
26907;DHT22;14472;56.880;16.658;2023-11-19T14:14:09;4.30;1.00
26907;DHT22;14472;56.880;16.658;2023-11-19T14:16:34;4.30;1.00
26907;DHT22;14472;56.880;16.658;2023-11-19T14:19:00;4.30;1.00
26907;DHT22;14472;56.880;16.658;2023-11-19T14:21:26;4.30;1.00
26907;DHT22;14472;56.880;16.658;2023-11-19T14:23:52;4.20;1.00
26907;DHT22;14472;56.880;16.658;2023-11-19T14:26:18;4.30;1.00
26907;DHT22;14472;56.880;16.658;2023-11-19T14:28:44;4.20;1.00
26907;DHT22;14472;56.880;16.658;2023-11-19T14:31:10;4.30;1.00
26907;DHT22;14472;56.880;16.658;2023-11-19T14:33:35;4.30;1.00
26907;DHT22;14472;56.880;16.658;2023-11-19T14:36:03;4.30;1.00
26907;DHT22;14472;56.880;16.658;2023-11-19T14:38:31;4.40;1.00
26907;DHT22;14472;56.880;16.658;2023-11-19T14:40:58;4.30;1.00
26907;DHT22;14472;56.880;16.658;2023-11-19T14:43:25;4.30;1.00
26907;DHT22;14472;56.880;16.658;2023-11-19T14:45:51;4.30;1.00
26907;DHT22;14472;56.880;16.658;2023-11-19T14:48:17;4.30;1.00
26907;DHT22;14472;56.880;16.658;2023-11-19T14:50:43;4.20;1.00
26907;DHT22;14472;56.880;16.658;2023-11-19T14:53:10;4.30;1.00
26907;DHT22;14472;56.880;16.658;2023-11-19T14:55:36;4.30;1.00
26907;DHT22;14472;56.880;16.658;2023-11-19T14:58:03;4.40;1.00
26907;DHT22;14472;56.880;16.658;2023-11-19T15:00:29;4.30;1.00
26907;DHT22;14472;56.880;16.658;2023-11-19T15:02:55;4.40;1.00
26907;DHT22;14472;56.880;16.658;2023-11-19T15:05:22;4.30;1.00
26907;DHT22;14472;56.880;16.658;2023-11-19T15:07:48;4.40;1.00
26907;DHT22;14472;56.880;16.658;2023-11-19T15:10:15;4.40;1.00
26907;DHT22;14472;56.880;16.658;2023-11-19T15:12:41;4.40;1.00
26907;DHT22;14472;56.880;16.658;2023-11-19T15:15:08;4.40;1.00
26907;DHT22;14472;56.880;16.658;2023-11-19T15:17:40;4.40;1.00
26907;DHT22;14472;56.880;16.658;2023-11-19T15:20:06;4.30;1.00
26907;DHT22;14472;56.880;16.658;2023-11-19T15:22:32;4.40;1.00
26907;DHT22;14472;56.880;16.658;2023-11-19T15:24:58;4.30;1.00
26907;DHT22;14472;56.880;16.658;2023-11-19T15:27:23;4.30;1.00
26907;DHT22;14472;56.880;16.658;2023-11-19T15:29:49;4.40;1.00
26907;DHT22;14472;56.880;16.658;2023-11-19T15:32:15;4.30;1.00
26907;DHT22;14472;56.880;16.658;2023-11-19T15:34:40;4.40;1.00
26907;DHT22;14472;56.880;16.658;2023-11-19T15:37:07;4.40;1.00
26907;DHT22;14472;56.880;16.658;2023-11-19T15:39:33;4.30;1.00
26907;DHT22;14472;56.880;16.658;2023-11-19T15:42:01;4.30;1.00
26907;DHT22;14472;56.880;16.658;2023-11-19T15:44:27;4.30;1.00
26907;DHT22;14472;56.880;16.658;2023-11-19T15:46:54;4.30;1.00
26907;DHT22;14472;56.880;16.658;2023-11-19T15:49:20;4.40;1.00
26907;DHT22;14472;56.880;16.658;2023-11-19T15:51:46;4.30;1.00
26907;DHT22;14472;56.880;16.658;2023-11-19T15:54:11;4.50;1.00
26907;DHT22;14472;56.880;16.658;2023-11-19T15:56:37;4.50;1.00
26907;DHT22;14472;56.880;16.658;2023-11-19T15:59:03;4.40;1.00
26907;DHT22;14472;56.880;16.658;2023-11-19T16:01:33;4.30;1.00